Hillcrest, Florida
Current Conditions -  °F | °C
As of 12:53 AM on Saturday 29 Nov 2014 (Local Time) from KHWO Reporting Station
Clear Clear  
Wind Chill: 13°   Ceiling: Unl
Heat Index: 13°   Visibility: 10mi
Dew Point: 10°   Wind: 10mph
Humidity: 83%   Direction: 330°NNW
Pressure: 30.2"   Gusts: NA
Location:  26.0179°N, 80.2031°W
Report Text: KHWO 290553Z AUTO 33009KT 10SM CLR 13/10 A3020 RMK AO2 SLP226 T01280100 10172 20128 58006
Loading
Personal Weather Stations






























Interactive Weather Map New forecast layout! Learn more

10-Day Weather Forecast

Advertisements
Track Severe Weather on mobile